sensor_id;sensor_type;location;lat;lon;timestamp;pressure;altitude;pressure_sealevel;temperature;humidity
17505;BME280;8870;50.950;11.762;2024-01-15T00:04:30;96610.72;;;0.15;100.00
17505;BME280;8870;50.950;11.762;2024-01-15T00:09:49;96619.63;;;0.14;100.00
17505;BME280;8870;50.950;11.762;2024-01-15T00:15:23;96605.69;;;0.12;100.00
17505;BME280;8870;50.950;11.762;2024-01-15T00:20:56;96600.53;;;0.10;100.00
17505;BME280;8870;50.950;11.762;2024-01-15T00:26:14;96609.03;;;0.14;100.00
17505;BME280;8870;50.950;11.762;2024-01-15T00:31:48;96601.22;;;0.12;100.00
17505;BME280;8870;50.950;11.762;2024-01-15T00:37:06;96612.66;;;0.13;100.00
17505;BME280;8870;50.950;11.762;2024-01-15T00:42:37;96598.72;;;0.11;100.00
17505;BME280;8870;50.950;11.762;2024-01-15T00:47:57;96606.81;;;0.09;100.00
17505;BME280;8870;50.950;11.762;2024-01-15T00:53:29;96608.06;;;0.05;100.00
17505;BME280;8870;50.950;11.762;2024-01-15T00:58:48;96600.28;;;0.04;100.00
17505;BME280;8870;50.950;11.762;2024-01-15T01:04:21;96601.25;;;0.03;100.00
17505;BME280;8870;50.950;11.762;2024-01-15T01:09:40;96591.78;;;0.00;100.00
17505;BME280;8870;50.950;11.762;2024-01-15T01:15:13;96592.31;;;0.04;100.00
17505;BME280;8870;50.950;11.762;2024-01-15T01:20:46;96580.34;;;-0.01;100.00
17505;BME280;8870;50.950;11.762;2024-01-15T01:26:05;96597.34;;;-0.03;100.00
17505;BME280;8870;50.950;11.762;2024-01-15T01:31:42;96608.91;;;-0.04;100.00
17505;BME280;8870;50.950;11.762;2024-01-15T01:37:04;96596.78;;;-0.07;100.00
17505;BME280;8870;50.950;11.762;2024-01-15T01:42:36;96603.06;;;-0.08;100.00
17505;BME280;8870;50.950;11.762;2024-01-15T01:47:54;96578.66;;;-0.11;100.00
17505;BME280;8870;50.950;11.762;2024-01-15T01:53:27;96586.91;;;-0.14;100.00
17505;BME280;8870;50.950;11.762;2024-01-15T01:58:47;96578.53;;;-0.20;100.00
17505;BME280;8870;50.950;11.762;2024-01-15T02:04:19;96582.56;;;-0.25;100.00
17505;BME280;8870;50.950;11.762;2024-01-15T02:09:41;96561.81;;;-0.30;100.00
17505;BME280;8870;50.950;11.762;2024-01-15T02:15:13;96564.88;;;-0.35;100.00
17505;BME280;8870;50.950;11.762;2024-01-15T02:20:32;96582.16;;;-0.40;100.00
17505;BME280;8870;50.950;11.762;2024-01-15T02:26:06;96576.56;;;-0.47;100.00
17505;BME280;8870;50.950;11.762;2024-01-15T02:31:25;96571.84;;;-0.53;100.00
17505;BME280;8870;50.950;11.762;2024-01-15T02:36:56;96570.28;;;-0.56;100.00
17505;BME280;8870;50.950;11.762;2024-01-15T02:42:17;96568.06;;;-0.60;100.00
17505;BME280;8870;50.950;11.762;2024-01-15T02:47:48;96575.44;;;-0.64;100.00
17505;BME280;8870;50.950;11.762;2024-01-15T02:53:06;96579.19;;;-0.67;100.00
17505;BME280;8870;50.950;11.762;2024-01-15T02:58:39;96552.16;;;-0.70;100.00
17505;BME280;8870;50.950;11.762;2024-01-15T03:03:58;96539.09;;;-0.72;100.00
17505;BME280;8870;50.950;11.762;2024-01-15T03:09:29;96543.69;;;-0.74;100.00
17505;BME280;8870;50.950;11.762;2024-01-15T03:14:56;96558.84;;;-0.76;100.00
17505;BME280;8870;50.950;11.762;2024-01-15T03:20:28;96563.44;;;-0.78;100.00
17505;BME280;8870;50.950;11.762;2024-01-15T03:25:46;96560.09;;;-0.80;100.00
17505;BME280;8870;50.950;11.762;2024-01-15T03:31:19;96539.94;;;-0.81;100.00
17505;BME280;8870;50.950;11.762;2024-01-15T03:36:38;96532.81;;;-0.81;100.00
17505;BME280;8870;50.950;11.762;2024-01-15T03:42:09;96521.81;;;-0.76;100.00
17505;BME280;8870;50.950;11.762;2024-01-15T03:47:30;96539.38;;;-0.75;100.00
17505;BME280;8870;50.950;11.762;2024-01-15T03:53:02;96545.41;;;-0.53;100.00
17505;BME280;8870;50.950;11.762;2024-01-15T03:58:21;96547.47;;;-0.47;100.00
17505;BME280;8870;50.950;11.762;2024-01-15T04:03:54;96541.34;;;-0.57;100.00
17505;BME280;8870;50.950;11.762;2024-01-15T04:09:13;96558.06;;;-0.47;100.00
17505;BME280;8870;50.950;11.762;2024-01-15T04:14:45;96549.16;;;-0.36;100.00
17505;BME280;8870;50.950;11.762;2024-01-15T04:20:07;96547.47;;;-0.27;100.00
17505;BME280;8870;50.950;11.762;2024-01-15T04:25:40;96533.00;;;-0.23;100.00
17505;BME280;8870;50.950;11.762;2024-01-15T04:30:58;96541.63;;;-0.21;100.00
17505;BME280;8870;50.950;11.762;2024-01-15T04:36:31;96538.28;;;-0.23;100.00
17505;BME280;8870;50.950;11.762;2024-01-15T04:41:50;96551.50;;;-0.23;100.00
17505;BME280;8870;50.950;11.762;2024-01-15T04:47:22;96551.66;;;-0.25;100.00
17505;BME280;8870;50.950;11.762;2024-01-15T04:52:43;96563.50;;;-0.29;100.00
17505;BME280;8870;50.950;11.762;2024-01-15T04:58:14;96562.94;;;-0.33;100.00
17505;BME280;8870;50.950;11.762;2024-01-15T05:03:32;96549.00;;;-0.44;100.00
17505;BME280;8870;50.950;11.762;2024-01-15T05:09:05;96540.94;;;-0.53;100.00
17505;BME280;8870;50.950;11.762;2024-01-15T05:14:31;96539.09;;;-0.52;100.00
17505;BME280;8870;50.950;11.762;2024-01-15T05:20:02;96538.28;;;-0.53;100.00
17505;BME280;8870;50.950;11.762;2024-01-15T05:25:23;96532.28;;;-0.55;100.00
17505;BME280;8870;50.950;11.762;2024-01-15T05:30:55;96515.72;;;-0.57;100.00
17505;BME280;8870;50.950;11.762;2024-01-15T05:36:13;96521.31;;;-0.60;100.00
17505;BME280;8870;50.950;11.762;2024-01-15T05:41:47;96529.25;;;-0.60;100.00
17505;BME280;8870;50.950;11.762;2024-01-15T05:47:06;96537.84;;;-0.58;100.00
17505;BME280;8870;50.950;11.762;2024-01-15T05:52:37;96521.59;;;-0.53;100.00
17505;BME280;8870;50.950;11.762;2024-01-15T05:57:58;96526.88;;;-0.53;100.00
17505;BME280;8870;50.950;11.762;2024-01-15T06:03:29;96507.50;;;-0.54;100.00
17505;BME280;8870;50.950;11.762;2024-01-15T06:08:48;96510.72;;;-0.50;100.00
17505;BME280;8870;50.950;11.762;2024-01-15T06:14:23;96515.19;;;-0.51;100.00
17505;BME280;8870;50.950;11.762;2024-01-15T06:19:42;96521.28;;;-0.50;100.00
17505;BME280;8870;50.950;11.762;2024-01-15T06:25:13;96513.94;;;-0.56;100.00
17505;BME280;8870;50.950;11.762;2024-01-15T06:30:34;96520.47;;;-0.60;100.00
17505;BME280;8870;50.950;11.762;2024-01-15T06:36:06;96511.84;;;-0.72;100.00
17505;BME280;8870;50.950;11.762;2024-01-15T06:41:25;96519.19;;;-0.76;100.00
17505;BME280;8870;50.950;11.762;2024-01-15T06:46:59;96527.69;;;-0.82;100.00
17505;BME280;8870;50.950;11.762;2024-01-15T06:52:18;96508.75;;;-0.78;100.00
17505;BME280;8870;50.950;11.762;2024-01-15T06:57:49;96521.28;;;-0.80;100.00
17505;BME280;8870;50.950;11.762;2024-01-15T07:03:11;96530.06;;;-0.79;100.00
17505;BME280;8870;50.950;11.762;2024-01-15T07:08:42;96525.75;;;-0.80;100.00
17505;BME280;8870;50.950;11.762;2024-01-15T07:14:07;96521.81;;;-0.76;100.00
17505;BME280;8870;50.950;11.762;2024-01-15T07:19:40;96515.31;;;-0.72;100.00
17505;BME280;8870;50.950;11.762;2024-01-15T07:24:59;96520.59;;;-0.72;100.00
17505;BME280;8870;50.950;11.762;2024-01-15T07:30:30;96534.06;;;-0.75;100.00
17505;BME280;8870;50.950;11.762;2024-01-15T07:35:51;96544.38;;;-0.72;100.00
17505;BME280;8870;50.950;11.762;2024-01-15T07:41:23;96528.97;;;-0.67;100.00
17505;BME280;8870;50.950;11.762;2024-01-15T07:46:44;96544.38;;;-0.72;100.00
17505;BME280;8870;50.950;11.762;2024-01-15T07:52:17;96553.84;;;-0.79;100.00
17505;BME280;8870;50.950;11.762;2024-01-15T07:57:36;96553.84;;;-0.79;100.00
17505;BME280;8870;50.950;11.762;2024-01-15T08:03:20;96555.22;;;-0.75;100.00
17505;BME280;8870;50.950;11.762;2024-01-15T08:08:41;96557.47;;;-0.80;100.00
17505;BME280;8870;50.950;11.762;2024-01-15T08:14:12;96548.56;;;-0.79;100.00
17505;BME280;8870;50.950;11.762;2024-01-15T08:19:30;96539.38;;;-0.75;100.00
17505;BME280;8870;50.950;11.762;2024-01-15T08:25:06;96530.75;;;-0.67;100.00
17505;BME280;8870;50.950;11.762;2024-01-15T08:30:24;96526.03;;;-0.54;100.00
17505;BME280;8870;50.950;11.762;2024-01-15T08:35:56;96510.72;;;-0.40;100.00
17505;BME280;8870;50.950;11.762;2024-01-15T08:41:17;96512.94;;;-0.36;100.00
17505;BME280;8870;50.950;11.762;2024-01-15T08:46:48;96504.44;;;-0.20;100.00
17505;BME280;8870;50.950;11.762;2024-01-15T08:52:06;96521.56;;;-0.04;100.00
17505;BME280;8870;50.950;11.762;2024-01-15T08:57:40;96523.50;;;0.04;100.00
17505;BME280;8870;50.950;11.762;2024-01-15T09:02:59;96522.09;;;0.09;100.00
17505;BME280;8870;50.950;11.762;2024-01-15T09:08:30;96522.91;;;0.20;100.00
17505;BME280;8870;50.950;11.762;2024-01-15T09:13:59;96529.53;;;0.34;100.00
17505;BME280;8870;50.950;11.762;2024-01-15T09:19:33;96534.56;;;0.37;100.00
17505;BME280;8870;50.950;11.762;2024-01-15T09:24:52;96539.56;;;0.40;100.00
17505;BME280;8870;50.950;11.762;2024-01-15T09:30:26;96528.66;;;0.43;100.00
17505;BME280;8870;50.950;11.762;2024-01-15T09:35:44;96525.59;;;0.48;100.00
17505;BME280;8870;50.950;11.762;2024-01-15T09:41:15;96530.47;;;0.52;100.00
17505;BME280;8870;50.950;11.762;2024-01-15T09:46:36;96540.75;;;0.55;100.00
17505;BME280;8870;50.950;11.762;2024-01-15T09:52:07;96534.47;;;0.66;100.00
17505;BME280;8870;50.950;11.762;2024-01-15T09:57:26;96524.91;;;0.83;100.00
17505;BME280;8870;50.950;11.762;2024-01-15T10:03:01;96520.13;;;0.87;100.00
17505;BME280;8870;50.950;11.762;2024-01-15T10:08:21;96511.19;;;0.88;100.00
17505;BME280;8870;50.950;11.762;2024-01-15T10:13:54;96514.56;;;0.80;100.00
17505;BME280;8870;50.950;11.762;2024-01-15T10:19:31;96495.75;;;0.83;100.00
17505;BME280;8870;50.950;11.762;2024-01-15T10:24:52;96480.00;;;0.82;100.00
17505;BME280;8870;50.950;11.762;2024-01-15T10:30:24;96504.88;;;0.99;100.00
17505;BME280;8870;50.950;11.762;2024-01-15T10:35:45;96509.97;;;1.10;100.00
17505;BME280;8870;50.950;11.762;2024-01-15T10:41:16;96494.41;;;1.15;100.00
17505;BME280;8870;50.950;11.762;2024-01-15T10:46:34;96491.78;;;1.15;100.00
17505;BME280;8870;50.950;11.762;2024-01-15T10:52:10;96485.78;;;1.13;100.00
17505;BME280;8870;50.950;11.762;2024-01-15T10:57:28;96471.09;;;1.19;100.00
17505;BME280;8870;50.950;11.762;2024-01-15T11:03:00;96473.75;;;1.37;100.00
17505;BME280;8870;50.950;11.762;2024-01-15T11:08:24;96483.59;;;1.45;100.00
17505;BME280;8870;50.950;11.762;2024-01-15T11:13:56;96486.13;;;1.46;100.00
17505;BME280;8870;50.950;11.762;2024-01-15T11:19:36;96480.41;;;1.41;100.00
17505;BME280;8870;50.950;11.762;2024-01-15T11:25:01;96488.69;;;1.38;100.00
17505;BME280;8870;50.950;11.762;2024-01-15T11:30:33;96479.38;;;1.34;100.00
17505;BME280;8870;50.950;11.762;2024-01-15T11:35:52;96496.03;;;1.26;100.00
17505;BME280;8870;50.950;11.762;2024-01-15T11:41:26;96492.84;;;1.22;100.00
17505;BME280;8870;50.950;11.762;2024-01-15T11:46:56;96483.88;;;1.23;100.00
17505;BME280;8870;50.950;11.762;2024-01-15T11:52:33;96482.47;;;1.29;100.00
17505;BME280;8870;50.950;11.762;2024-01-15T11:57:54;96477.06;;;1.39;100.00
17505;BME280;8870;50.950;11.762;2024-01-15T12:03:26;96466.69;;;1.46;100.00
17505;BME280;8870;50.950;11.762;2024-01-15T12:08:44;96460.94;;;1.50;100.00
17505;BME280;8870;50.950;11.762;2024-01-15T12:14:18;96459.34;;;1.40;100.00
17505;BME280;8870;50.950;11.762;2024-01-15T12:19:37;96444.44;;;1.38;100.00
17505;BME280;8870;50.950;11.762;2024-01-15T12:25:08;96450.78;;;1.46;100.00
17505;BME280;8870;50.950;11.762;2024-01-15T12:30:29;96465.25;;;1.51;100.00
17505;BME280;8870;50.950;11.762;2024-01-15T12:36:04;96448.28;;;1.44;100.00
17505;BME280;8870;50.950;11.762;2024-01-15T12:41:22;96470.09;;;1.38;100.00
17505;BME280;8870;50.950;11.762;2024-01-15T12:46:57;96421.53;;;1.37;100.00
17505;BME280;8870;50.950;11.762;2024-01-15T12:52:15;96428.50;;;1.38;100.00
17505;BME280;8870;50.950;11.762;2024-01-15T12:57:46;96454.50;;;1.35;100.00
17505;BME280;8870;50.950;11.762;2024-01-15T13:03:07;96433.81;;;1.38;100.00
17505;BME280;8870;50.950;11.762;2024-01-15T13:08:39;96431.16;;;1.38;100.00
17505;BME280;8870;50.950;11.762;2024-01-15T13:13:57;96434.63;;;1.39;100.00
17505;BME280;8870;50.950;11.762;2024-01-15T13:19:31;96447.53;;;1.34;100.00
17505;BME280;8870;50.950;11.762;2024-01-15T13:24:49;96440.16;;;1.28;100.00
17505;BME280;8870;50.950;11.762;2024-01-15T13:30:20;96448.88;;;1.20;100.00
17505;BME280;8870;50.950;11.762;2024-01-15T13:35:41;96450.31;;;1.14;100.00
17505;BME280;8870;50.950;11.762;2024-01-15T13:41:13;96452.00;;;1.15;100.00
17505;BME280;8870;50.950;11.762;2024-01-15T13:46:33;96453.50;;;1.18;100.00
17505;BME280;8870;50.950;11.762;2024-01-15T13:52:07;96452.97;;;1.14;100.00
17505;BME280;8870;50.950;11.762;2024-01-15T13:57:25;96463.91;;;1.11;100.00
17505;BME280;8870;50.950;11.762;2024-01-15T14:02:57;96455.38;;;1.07;100.00
17505;BME280;8870;50.950;11.762;2024-01-15T14:08:18;96476.38;;;1.01;100.00
17505;BME280;8870;50.950;11.762;2024-01-15T14:13:50;96476.53;;;0.99;100.00
17505;BME280;8870;50.950;11.762;2024-01-15T14:19:21;96492.72;;;0.96;100.00
17505;BME280;8870;50.950;11.762;2024-01-15T14:24:42;96496.22;;;0.97;100.00
17505;BME280;8870;50.950;11.762;2024-01-15T14:30:14;96483.09;;;0.95;100.00
17505;BME280;8870;50.950;11.762;2024-01-15T14:35:33;96493.88;;;0.94;100.00
17505;BME280;8870;50.950;11.762;2024-01-15T14:41:07;96497.50;;;0.92;100.00
17505;BME280;8870;50.950;11.762;2024-01-15T14:46:25;96503.94;;;0.90;100.00
17505;BME280;8870;50.950;11.762;2024-01-15T14:51:56;96499.78;;;0.87;100.00
17505;BME280;8870;50.950;11.762;2024-01-15T14:57:17;96498.22;;;0.85;100.00
17505;BME280;8870;50.950;11.762;2024-01-15T15:02:48;96513.31;;;0.84;100.00
17505;BME280;8870;50.950;11.762;2024-01-15T15:08:06;96521.56;;;0.81;100.00
17505;BME280;8870;50.950;11.762;2024-01-15T15:13:40;96530.47;;;0.80;100.00
17505;BME280;8870;50.950;11.762;2024-01-15T15:18:58;96547.69;;;0.76;100.00
17505;BME280;8870;50.950;11.762;2024-01-15T15:24:29;96551.44;;;0.73;100.00
17505;BME280;8870;50.950;11.762;2024-01-15T15:29:51;96556.63;;;0.65;100.00
17505;BME280;8870;50.950;11.762;2024-01-15T15:35:22;96555.69;;;0.56;100.00
17505;BME280;8870;50.950;11.762;2024-01-15T15:40:40;96548.72;;;0.55;100.00
17505;BME280;8870;50.950;11.762;2024-01-15T15:46:14;96584.56;;;0.59;100.00
17505;BME280;8870;50.950;11.762;2024-01-15T15:51:32;96570.59;;;0.57;100.00
17505;BME280;8870;50.950;11.762;2024-01-15T15:57:04;96596.41;;;0.55;100.00
17505;BME280;8870;50.950;11.762;2024-01-15T16:02:25;96574.13;;;0.48;100.00
17505;BME280;8870;50.950;11.762;2024-01-15T16:07:56;96587.66;;;0.45;100.00
17505;BME280;8870;50.950;11.762;2024-01-15T16:13:16;96592.25;;;0.43;100.00
17505;BME280;8870;50.950;11.762;2024-01-15T16:18:50;96606.47;;;0.42;100.00
17505;BME280;8870;50.950;11.762;2024-01-15T16:24:28;96605.66;;;0.41;100.00
17505;BME280;8870;50.950;11.762;2024-01-15T16:30:08;96614.41;;;0.42;100.00
17505;BME280;8870;50.950;11.762;2024-01-15T16:35:43;96619.72;;;0.42;100.00
17505;BME280;8870;50.950;11.762;2024-01-15T16:41:14;96631.00;;;0.44;100.00
17505;BME280;8870;50.950;11.762;2024-01-15T16:46:32;96613.31;;;0.44;100.00
17505;BME280;8870;50.950;11.762;2024-01-15T16:52:07;96636.03;;;0.47;100.00
17505;BME280;8870;50.950;11.762;2024-01-15T16:57:25;96628.78;;;0.49;100.00
17505;BME280;8870;50.950;11.762;2024-01-15T17:02:56;96618.19;;;0.49;100.00
17505;BME280;8870;50.950;11.762;2024-01-15T17:08:17;96628.63;;;0.51;100.00
17505;BME280;8870;50.950;11.762;2024-01-15T17:13:49;96614.94;;;0.55;100.00
17505;BME280;8870;50.950;11.762;2024-01-15T17:19:07;96612.59;;;0.52;100.00
17505;BME280;8870;50.950;11.762;2024-01-15T17:24:41;96636.47;;;0.52;100.00
17505;BME280;8870;50.950;11.762;2024-01-15T17:29:59;96642.72;;;0.51;100.00
17505;BME280;8870;50.950;11.762;2024-01-15T17:35:31;96650.09;;;0.57;100.00
17505;BME280;8870;50.950;11.762;2024-01-15T17:40:52;96651.06;;;0.56;100.00
17505;BME280;8870;50.950;11.762;2024-01-15T17:46:23;96644.41;;;0.52;100.00
17505;BME280;8870;50.950;11.762;2024-01-15T17:51:41;96650.53;;;0.53;100.00
17505;BME280;8870;50.950;11.762;2024-01-15T17:57:17;96649.53;;;0.54;100.00
17505;BME280;8870;50.950;11.762;2024-01-15T18:02:35;96644.09;;;0.55;100.00
17505;BME280;8870;50.950;11.762;2024-01-15T18:08:07;96651.06;;;0.56;100.00
17505;BME280;8870;50.950;11.762;2024-01-15T18:13:29;96663.06;;;0.60;100.00
17505;BME280;8870;50.950;11.762;2024-01-15T18:19:00;96652.19;;;0.64;100.00
17505;BME280;8870;50.950;11.762;2024-01-15T18:24:18;96680.38;;;0.65;100.00
17505;BME280;8870;50.950;11.762;2024-01-15T18:29:52;96694.00;;;0.70;100.00
17505;BME280;8870;50.950;11.762;2024-01-15T18:35:11;96686.91;;;0.70;100.00
17505;BME280;8870;50.950;11.762;2024-01-15T18:40:43;96699.59;;;0.67;100.00
17505;BME280;8870;50.950;11.762;2024-01-15T18:46:06;96699.03;;;0.63;100.00
17505;BME280;8870;50.950;11.762;2024-01-15T18:51:38;96714.66;;;0.56;100.00
17505;BME280;8870;50.950;11.762;2024-01-15T18:57:00;96718.88;;;0.49;100.00
17505;BME280;8870;50.950;11.762;2024-01-15T19:02:34;96742.97;;;0.36;100.00
17505;BME280;8870;50.950;11.762;2024-01-15T19:07:53;96759.00;;;0.15;100.00
17505;BME280;8870;50.950;11.762;2024-01-15T19:13:24;96745.84;;;-0.06;100.00
17505;BME280;8870;50.950;11.762;2024-01-15T19:18:52;96743.00;;;-0.24;100.00
17505;BME280;8870;50.950;11.762;2024-01-15T19:24:25;96762.09;;;-0.21;100.00
17505;BME280;8870;50.950;11.762;2024-01-15T19:29:43;96752.25;;;-0.09;100.00
17505;BME280;8870;50.950;11.762;2024-01-15T19:35:18;96759.81;;;0.06;100.00
17505;BME280;8870;50.950;11.762;2024-01-15T19:40:36;96759.81;;;0.15;100.00
17505;BME280;8870;50.950;11.762;2024-01-15T19:46:08;96754.00;;;0.22;100.00
17505;BME280;8870;50.950;11.762;2024-01-15T19:51:29;96777.41;;;0.26;100.00
17505;BME280;8870;50.950;11.762;2024-01-15T19:57:02;96780.63;;;0.30;100.00
17505;BME280;8870;50.950;11.762;2024-01-15T20:02:21;96815.34;;;0.37;100.00
17505;BME280;8870;50.950;11.762;2024-01-15T20:07:57;96802.50;;;0.42;100.00
17505;BME280;8870;50.950;11.762;2024-01-15T20:13:18;96822.06;;;0.41;100.00
17505;BME280;8870;50.950;11.762;2024-01-15T20:18:49;96842.13;;;0.43;100.00
17505;BME280;8870;50.950;11.762;2024-01-15T20:24:23;96844.88;;;0.42;100.00
17505;BME280;8870;50.950;11.762;2024-01-15T20:29:41;96880.59;;;0.38;100.00
17505;BME280;8870;50.950;11.762;2024-01-15T20:35:12;96870.25;;;0.35;100.00
17505;BME280;8870;50.950;11.762;2024-01-15T20:40:34;96886.16;;;0.35;100.00
17505;BME280;8870;50.950;11.762;2024-01-15T20:46:06;96888.09;;;0.33;100.00
17505;BME280;8870;50.950;11.762;2024-01-15T20:51:24;96895.06;;;0.34;100.00
17505;BME280;8870;50.950;11.762;2024-01-15T20:56:58;96904.84;;;0.33;100.00
17505;BME280;8870;50.950;11.762;2024-01-15T21:02:19;96923.50;;;0.32;100.00
17505;BME280;8870;50.950;11.762;2024-01-15T21:07:51;96898.94;;;0.29;100.00
17505;BME280;8870;50.950;11.762;2024-01-15T21:13:12;96904.25;;;0.29;100.00
17505;BME280;8870;50.950;11.762;2024-01-15T21:18:43;96912.59;;;0.25;100.00
17505;BME280;8870;50.950;11.762;2024-01-15T21:24:14;96911.06;;;0.22;100.00
17505;BME280;8870;50.950;11.762;2024-01-15T21:29:38;96908.16;;;0.25;100.00
17505;BME280;8870;50.950;11.762;2024-01-15T21:35:10;96916.94;;;0.26;100.00
17505;BME280;8870;50.950;11.762;2024-01-15T21:40:28;96934.66;;;0.25;100.00
17505;BME280;8870;50.950;11.762;2024-01-15T21:46:02;96921.66;;;0.22;100.00
17505;BME280;8870;50.950;11.762;2024-01-15T21:51:20;96931.44;;;0.22;100.00
17505;BME280;8870;50.950;11.762;2024-01-15T21:56:51;96941.44;;;0.18;100.00
17505;BME280;8870;50.950;11.762;2024-01-15T22:02:12;96922.88;;;0.18;100.00
17505;BME280;8870;50.950;11.762;2024-01-15T22:07:44;96930.16;;;0.16;100.00
17505;BME280;8870;50.950;11.762;2024-01-15T22:13:04;96937.13;;;0.17;100.00
17505;BME280;8870;50.950;11.762;2024-01-15T22:18:38;96933.38;;;0.20;100.00
17505;BME280;8870;50.950;11.762;2024-01-15T22:23:56;96950.09;;;0.20;100.00
17505;BME280;8870;50.950;11.762;2024-01-15T22:29:27;96952.31;;;0.15;100.00
17505;BME280;8870;50.950;11.762;2024-01-15T22:34:48;96939.47;;;0.10;100.00
17505;BME280;8870;50.950;11.762;2024-01-15T22:40:19;96940.53;;;0.08;100.00
17505;BME280;8870;50.950;11.762;2024-01-15T22:45:37;96955.75;;;0.06;100.00
17505;BME280;8870;50.950;11.762;2024-01-15T22:51:11;96961.03;;;0.06;100.00
17505;BME280;8870;50.950;11.762;2024-01-15T22:56:29;96965.09;;;0.10;100.00
17505;BME280;8870;50.950;11.762;2024-01-15T23:02:00;96992.28;;;0.12;100.00
17505;BME280;8870;50.950;11.762;2024-01-15T23:07:21;96996.47;;;0.14;100.00
17505;BME280;8870;50.950;11.762;2024-01-15T23:12:52;96992.75;;;0.17;100.00
17505;BME280;8870;50.950;11.762;2024-01-15T23:18:17;97000.69;;;0.17;100.00
17505;BME280;8870;50.950;11.762;2024-01-15T23:23:51;97005.13;;;0.17;100.00
17505;BME280;8870;50.950;11.762;2024-01-15T23:29:09;97012.25;;;0.16;100.00
17505;BME280;8870;50.950;11.762;2024-01-15T23:34:40;97003.03;;;0.20;100.00
17505;BME280;8870;50.950;11.762;2024-01-15T23:40:01;97026.63;;;0.23;100.00
17505;BME280;8870;50.950;11.762;2024-01-15T23:45:34;97016.59;;;0.27;100.00
17505;BME280;8870;50.950;11.762;2024-01-15T23:50:54;97022.75;;;0.27;100.00
17505;BME280;8870;50.950;11.762;2024-01-15T23:56:29;97043.09;;;0.27;100.00
